createdAt,value
2018-08-07T00:00:25.803Z,0
2018-08-07T00:01:32.355Z,0
2018-08-07T00:02:41.897Z,0
2018-08-07T00:03:48.491Z,0
2018-08-07T00:04:59.157Z,0
2018-08-07T00:06:04.646Z,0
2018-08-07T00:07:12.701Z,0
2018-08-07T00:08:20.789Z,0
2018-08-07T00:09:28.919Z,0
2018-08-07T00:10:36.930Z,0
2018-08-07T00:11:45.090Z,0
2018-08-07T00:12:53.111Z,0
2018-08-07T00:14:01.165Z,0
2018-08-07T00:15:09.262Z,0
2018-08-07T00:16:17.353Z,0
2018-08-07T00:17:25.340Z,0
2018-08-07T00:18:33.450Z,0
2018-08-07T00:19:41.501Z,0
2018-08-07T00:20:49.564Z,0
2018-08-07T00:21:57.681Z,0
2018-08-07T00:23:05.706Z,0
2018-08-07T00:24:13.875Z,0
2018-08-07T00:25:21.863Z,0
2018-08-07T00:26:29.972Z,0
2018-08-07T00:27:38.005Z,0
2018-08-07T00:28:47.106Z,0
2018-08-07T00:29:54.145Z,0
2018-08-07T00:31:06.058Z,0
2018-08-07T00:32:10.290Z,0
2018-08-07T00:33:21.892Z,0
2018-08-07T00:34:26.427Z,0
2018-08-07T00:35:34.573Z,0
2018-08-07T00:36:42.575Z,0
2018-08-07T00:37:50.762Z,0
2018-08-07T00:38:58.716Z,0
2018-08-07T00:40:07.162Z,0
2018-08-07T00:41:14.865Z,0
2018-08-07T00:42:22.931Z,0
2018-08-07T00:43:30.992Z,0
2018-08-07T00:44:39.071Z,0
2018-08-07T00:45:47.142Z,0
2018-08-07T00:46:55.199Z,0
2018-08-07T00:48:03.286Z,0
2018-08-07T00:49:11.456Z,0
2018-08-07T00:50:21.074Z,0
2018-08-07T00:51:27.503Z,0
2018-08-07T00:52:35.551Z,0
2018-08-07T00:53:43.644Z,0
2018-08-07T00:54:53.289Z,0
2018-08-07T00:55:59.782Z,0
2018-08-07T00:57:09.261Z,0
2018-08-07T00:58:15.960Z,0
2018-08-07T00:59:24.024Z,0
2018-08-07T01:00:32.266Z,0
2018-08-07T01:01:40.160Z,0
2018-08-07T01:02:48.203Z,0
2018-08-07T01:03:59.095Z,0
2018-08-07T01:05:04.427Z,0
2018-08-07T01:06:12.439Z,0
2018-08-07T01:07:20.529Z,0
2018-08-07T01:08:28.702Z,0
2018-08-07T01:09:36.884Z,0
2018-08-07T01:10:44.747Z,0
2018-08-07T01:11:52.970Z,0
2018-08-07T01:13:01.216Z,0
2018-08-07T01:14:08.918Z,0
2018-08-07T01:15:16.981Z,0
2018-08-07T01:16:25.054Z,0
2018-08-07T01:17:33.151Z,0
2018-08-07T01:18:42.821Z,0
2018-08-07T01:19:50.354Z,0
2018-08-07T01:20:59.046Z,0
2018-08-07T01:22:05.401Z,0
2018-08-07T01:23:13.488Z,0
2018-08-07T01:24:21.742Z,0
2018-08-07T01:25:29.658Z,0
2018-08-07T01:26:46.628Z,0
2018-08-07T01:27:49.268Z,0
2018-08-07T01:28:53.836Z,0
2018-08-07T01:30:04.042Z,0
2018-08-07T01:31:09.973Z,0
2018-08-07T01:32:18.260Z,0
2018-08-07T01:33:26.101Z,0
2018-08-07T01:34:34.305Z,0
2018-08-07T01:35:42.362Z,0
2018-08-07T01:36:50.350Z,0
2018-08-07T01:37:58.408Z,0
2018-08-07T01:39:06.500Z,0
2018-08-07T01:40:14.844Z,0
2018-08-07T01:41:22.621Z,0
2018-08-07T01:42:31.351Z,0
2018-08-07T01:43:38.767Z,0
2018-08-07T01:44:46.830Z,0
2018-08-07T01:47:12.084Z,0
2018-08-07T01:48:20.329Z,0
2018-08-07T01:49:32.067Z,0
2018-08-07T01:50:36.481Z,0
2018-08-07T01:51:46.372Z,0
2018-08-07T01:52:52.622Z,0
2018-08-07T01:54:00.684Z,0
2018-08-07T01:55:08.764Z,0
2018-08-07T01:56:18.376Z,0
2018-08-07T01:57:24.951Z,0
2018-08-07T01:58:33.362Z,0
2018-08-07T01:59:41.042Z,0
2018-08-07T02:00:49.138Z,0
2018-08-07T02:01:57.182Z,0
2018-08-07T02:03:05.578Z,0
2018-08-07T02:04:13.325Z,0
2018-08-07T02:05:21.432Z,0
2018-08-07T02:06:29.560Z,0
2018-08-07T02:07:37.566Z,0
2018-08-07T02:08:45.581Z,0
2018-08-07T02:09:53.701Z,0
2018-08-07T02:11:01.748Z,0
2018-08-07T02:12:09.880Z,0
2018-08-07T02:13:18.152Z,0
2018-08-07T02:14:25.953Z,0
2018-08-07T02:15:34.021Z,0
2018-08-07T02:16:42.099Z,0
2018-08-07T02:17:50.206Z,0
2018-08-07T02:18:58.248Z,0
2018-08-07T02:20:06.314Z,0
2018-08-07T02:21:14.472Z,0
2018-08-07T02:22:26.172Z,0
2018-08-07T02:23:30.531Z,0
2018-08-07T02:24:42.148Z,0
2018-08-07T02:25:46.673Z,0
2018-08-07T02:26:54.770Z,0
2018-08-07T02:28:02.810Z,0
2018-08-07T02:29:10.887Z,0
2018-08-07T02:30:18.950Z,0
2018-08-07T02:31:27.252Z,0
2018-08-07T02:32:35.084Z,0
2018-08-07T02:33:43.184Z,0
2018-08-07T02:34:51.246Z,0
2018-08-07T02:35:59.341Z,0
2018-08-07T02:37:07.485Z,0
2018-08-07T02:38:15.424Z,0
2018-08-07T02:39:23.549Z,0
2018-08-07T02:40:31.605Z,0
2018-08-07T02:41:41.349Z,0
2018-08-07T02:42:47.743Z,0
2018-08-07T02:43:57.679Z,0
2018-08-07T02:45:03.885Z,0
2018-08-07T02:46:13.567Z,0
2018-08-07T02:47:20.073Z,0
2018-08-07T02:48:28.107Z,0
2018-08-07T02:49:36.132Z,0
2018-08-07T02:50:44.251Z,0
2018-08-07T02:51:52.307Z,0
2018-08-07T02:53:00.701Z,0
2018-08-07T02:54:08.446Z,0
2018-08-07T02:55:16.534Z,0
2018-08-07T02:56:24.687Z,0
2018-08-07T02:57:32.675Z,0
2018-08-07T02:58:40.738Z,0
2018-08-07T02:59:49.127Z,0
2018-08-07T03:00:56.866Z,0
2018-08-07T03:02:04.959Z,0
2018-08-07T03:03:13.118Z,0
2018-08-07T03:04:21.100Z,0
2018-08-07T03:05:29.354Z,0
2018-08-07T03:06:37.532Z,0
2018-08-07T03:07:45.470Z,0
2018-08-07T03:08:53.791Z,0
2018-08-07T03:10:01.843Z,0
2018-08-07T03:11:09.929Z,0
2018-08-07T03:12:17.985Z,0
2018-08-07T03:13:26.032Z,0
2018-08-07T03:14:34.119Z,0
2018-08-07T03:15:42.175Z,0
2018-08-07T03:16:50.255Z,0
2018-08-07T03:17:58.930Z,0
2018-08-07T03:19:07.017Z,0
2018-08-07T03:20:15.065Z,0
2018-08-07T03:21:26.695Z,0
2018-08-07T03:22:33.649Z,0
2018-08-07T03:23:41.695Z,0
2018-08-07T03:24:54.127Z,0
2018-08-07T03:25:58.868Z,0
2018-08-07T03:27:05.863Z,0
2018-08-07T03:28:16.105Z,0
2018-08-07T03:29:22.024Z,0
2018-08-07T03:30:30.108Z,0
2018-08-07T03:31:38.161Z,0
2018-08-07T03:32:46.230Z,0
2018-08-07T03:33:54.412Z,0
2018-08-07T03:35:02.396Z,4
2018-08-07T03:36:10.459Z,4
2018-08-07T03:37:18.810Z,0
2018-08-07T03:38:26.815Z,4
2018-08-07T03:39:35.130Z,4
2018-08-07T03:40:42.935Z,4
2018-08-07T03:41:51.003Z,4
2018-08-07T03:42:59.091Z,4
2018-08-07T03:44:07.144Z,4
2018-08-07T03:45:15.219Z,8
2018-08-07T03:46:23.497Z,8
2018-08-07T03:47:31.586Z,8
2018-08-07T03:48:39.862Z,12
2018-08-07T03:49:47.704Z,12
2018-08-07T03:50:55.745Z,16
2018-08-07T03:52:03.839Z,20
2018-08-07T03:53:11.997Z,24
2018-08-07T03:54:20.345Z,28
2018-08-07T03:55:28.046Z,36
2018-08-07T03:56:36.115Z,40
2018-08-07T03:57:44.196Z,48
2018-08-07T03:58:52.312Z,52
2018-08-07T04:00:00.353Z,56
2018-08-07T04:01:08.418Z,68
2018-08-07T04:02:16.483Z,76
2018-08-07T04:03:24.547Z,88
2018-08-07T04:04:32.615Z,96
2018-08-07T04:05:40.725Z,112
2018-08-07T04:06:48.772Z,128
2018-08-07T04:07:57.103Z,144
2018-08-07T04:09:04.918Z,160
2018-08-07T04:10:13.186Z,176
2018-08-07T04:11:21.070Z,196
2018-08-07T04:12:29.125Z,212
2018-08-07T04:13:37.212Z,232
2018-08-07T04:14:45.285Z,252
2018-08-07T04:15:56.232Z,284
2018-08-07T04:17:01.422Z,312
2018-08-07T04:18:10.966Z,340
2018-08-07T04:19:17.811Z,376
2018-08-07T04:20:25.633Z,412
2018-08-07T04:21:33.685Z,452
2018-08-07T04:22:41.801Z,496
2018-08-07T04:23:49.943Z,540
2018-08-07T04:24:57.932Z,592
2018-08-07T04:26:06.226Z,648
2018-08-07T04:27:14.297Z,712
2018-08-07T04:28:22.352Z,772
2018-08-07T04:29:30.425Z,828
2018-08-07T04:30:38.550Z,872
2018-08-07T04:31:46.565Z,920
2018-08-07T04:32:54.635Z,980
2018-08-07T04:34:02.994Z,1040
2018-08-07T04:35:10.772Z,1104
2018-08-07T04:36:22.551Z,1176
2018-08-07T04:37:26.946Z,1232
2018-08-07T04:38:35.005Z,1264
2018-08-07T04:39:43.262Z,1292
2018-08-07T04:40:57.656Z,1344
2018-08-07T04:42:03.655Z,1404
2018-08-07T04:43:11.693Z,1468
2018-08-07T04:44:19.771Z,1520
2018-08-07T04:45:28.489Z,1576
2018-08-07T04:46:35.884Z,1644
2018-08-07T04:47:43.973Z,1732
2018-08-07T04:48:52.121Z,1820
2018-08-07T04:50:00.129Z,1896
2018-08-07T04:51:08.212Z,1972
2018-08-07T04:52:16.256Z,2048
2018-08-07T04:53:24.322Z,2128
2018-08-07T04:54:32.400Z,2200
2018-08-07T04:55:40.491Z,2248
2018-08-07T04:56:48.559Z,2292
2018-08-07T04:57:56.628Z,2336
2018-08-07T04:59:04.686Z,2396
2018-08-07T05:00:12.747Z,2480
2018-08-07T05:01:20.821Z,2576
2018-08-07T05:02:28.867Z,2696
2018-08-07T05:03:37.195Z,2860
2018-08-07T05:04:45.006Z,3060
2018-08-07T05:05:54.713Z,3316
2018-08-07T05:07:01.137Z,3596
2018-08-07T05:08:09.904Z,3888
2018-08-07T05:09:18.281Z,4132
2018-08-07T05:10:28.705Z,4312
2018-08-07T05:11:33.758Z,4388
2018-08-07T05:12:41.504Z,4436
2018-08-07T05:13:49.567Z,4480
2018-08-07T05:14:57.619Z,4520
2018-08-07T05:16:05.676Z,4588
2018-08-07T05:17:13.755Z,4672
2018-08-07T05:18:21.911Z,4784
2018-08-07T05:19:29.888Z,4864
2018-08-07T05:20:37.965Z,4928
2018-08-07T05:21:45.997Z,4984
2018-08-07T05:22:54.334Z,5064
2018-08-07T05:24:02.161Z,5136
2018-08-07T05:25:10.248Z,5292
2018-08-07T05:26:18.318Z,5544
2018-08-07T05:27:26.399Z,5860
2018-08-07T05:28:34.440Z,6204
2018-08-07T05:29:43.552Z,6512
2018-08-07T05:30:50.587Z,6756
2018-08-07T05:31:58.649Z,7160
2018-08-07T05:33:06.724Z,7552
2018-08-07T05:34:14.783Z,7372
2018-08-07T05:35:22.852Z,7292
2018-08-07T05:36:30.926Z,7464
2018-08-07T05:37:39.000Z,7528
2018-08-07T05:38:47.064Z,8004
2018-08-07T05:39:55.155Z,8056
2018-08-07T05:41:03.205Z,7928
2018-08-07T05:42:11.305Z,8128
2018-08-07T05:43:19.361Z,8364
2018-08-07T05:44:27.543Z,8564
2018-08-07T05:45:35.476Z,8768
2018-08-07T05:46:43.588Z,8908
2018-08-07T05:47:51.649Z,9068
2018-08-07T05:48:59.722Z,9208
2018-08-07T05:50:07.978Z,9308
2018-08-07T05:51:16.201Z,9392
2018-08-07T05:52:23.952Z,9328
2018-08-07T05:53:32.032Z,9284
2018-08-07T05:54:40.186Z,9248
2018-08-07T05:55:48.173Z,9184
2018-08-07T05:56:56.244Z,9164
2018-08-07T05:58:04.675Z,9160
2018-08-07T05:59:12.384Z,9152
2018-08-07T06:00:20.469Z,9000
2018-08-07T06:01:31.902Z,8736
2018-08-07T06:02:36.612Z,8424
2018-08-07T06:03:46.870Z,8092
2018-08-07T06:04:52.772Z,7800
2018-08-07T06:06:00.874Z,7616
2018-08-07T06:07:09.116Z,7492
2018-08-07T06:08:17.318Z,7400
2018-08-07T06:09:25.248Z,7324
2018-08-07T06:10:33.357Z,7272
2018-08-07T06:11:41.415Z,7220
2018-08-07T06:12:49.522Z,7188
2018-08-07T06:13:57.563Z,7168
2018-08-07T06:15:05.630Z,7156
2018-08-07T06:16:13.708Z,7180
2018-08-07T06:17:21.781Z,7252
2018-08-07T06:18:29.848Z,7380
2018-08-07T06:19:37.934Z,7516
2018-08-07T06:20:45.977Z,7676
2018-08-07T06:21:54.337Z,7820
2018-08-07T06:23:02.147Z,7920
2018-08-07T06:24:10.228Z,7980
2018-08-07T06:25:18.290Z,8028
2018-08-07T06:26:26.371Z,8088
2018-08-07T06:27:34.464Z,8172
2018-08-07T06:28:42.579Z,8284
2018-08-07T06:29:52.395Z,8408
2018-08-07T06:30:58.684Z,8548
2018-08-07T06:32:09.861Z,8716
2018-08-07T06:33:15.812Z,8864
2018-08-07T06:34:23.992Z,8932
2018-08-07T06:35:30.973Z,8924
2018-08-07T06:36:39.073Z,8872
2018-08-07T06:37:47.174Z,8812
2018-08-07T06:38:55.206Z,8796
2018-08-07T06:40:03.273Z,8792
2018-08-07T06:41:11.367Z,8772
2018-08-07T06:42:19.431Z,8684
2018-08-07T06:43:27.621Z,8548
2018-08-07T06:44:35.545Z,8396
2018-08-07T06:45:43.655Z,8424
2018-08-07T06:46:51.716Z,8668
2018-08-07T06:47:59.832Z,9060
2018-08-07T06:49:07.864Z,9372
2018-08-07T06:50:16.210Z,8988
2018-08-07T06:51:24.323Z,9116
2018-08-07T06:52:32.390Z,9340
2018-08-07T06:53:40.737Z,9600
2018-08-07T06:54:48.441Z,9484
2018-08-07T06:55:59.869Z,9620
2018-08-07T06:57:04.643Z,9704
2018-08-07T06:58:14.150Z,9676
2018-08-07T06:59:20.732Z,9600
2018-08-07T07:00:28.837Z,9364
2018-08-07T07:01:36.886Z,9456
2018-08-07T07:02:45.110Z,9724
2018-08-07T07:03:53.081Z,9888
2018-08-07T07:05:01.135Z,9888
2018-08-07T07:06:09.381Z,9928
2018-08-07T07:07:17.479Z,10056
2018-08-07T07:08:25.504Z,10124
2018-08-07T07:09:33.785Z,10200
2018-08-07T07:10:41.685Z,10292
2018-08-07T07:11:49.748Z,10388
2018-08-07T07:12:57.827Z,10576
2018-08-07T07:14:05.882Z,10644
2018-08-07T07:15:13.985Z,10840
2018-08-07T07:16:22.050Z,11056
2018-08-07T07:17:30.311Z,11688
2018-08-07T07:18:38.199Z,11768
2018-08-07T07:19:46.277Z,14100
2018-08-07T07:20:54.539Z,14048
2018-08-07T07:22:05.199Z,13884
2018-08-07T07:23:10.562Z,18688
2018-08-07T07:24:18.670Z,19360
2018-08-07T07:25:26.655Z,17984
2018-08-07T07:26:38.193Z,17564
2018-08-07T07:27:43.021Z,19712
2018-08-07T07:28:50.912Z,19936
2018-08-07T07:29:58.963Z,16732
2018-08-07T07:31:07.679Z,18304
2018-08-07T07:32:15.116Z,37152
2018-08-07T07:33:24.675Z,58880
2018-08-07T07:34:31.335Z,43648
2018-08-07T07:35:39.363Z,36288
2018-08-07T07:36:47.432Z,28576
2018-08-07T07:37:55.589Z,34560
2018-08-07T07:39:03.821Z,39040
2018-08-07T07:40:11.750Z,42752
2018-08-07T07:41:19.755Z,45056
2018-08-07T07:42:32.678Z,44256
2018-08-07T07:43:36.947Z,45088
2018-08-07T07:44:43.971Z,44192
2018-08-07T07:45:52.054Z,50592
2018-08-07T07:47:00.332Z,52416
2018-08-07T07:48:08.419Z,54432
2018-08-07T07:49:16.486Z,53280
2018-08-07T07:50:25.640Z,54016
2018-08-07T07:51:33.009Z,53184
2018-08-07T07:52:40.743Z,55648
2018-08-07T07:53:48.929Z,55968
2018-08-07T07:54:56.916Z,54464
2018-08-07T07:56:05.238Z,52576
2018-08-07T07:57:13.086Z,50336
2018-08-07T07:58:21.360Z,51264
2018-08-07T07:59:36.918Z,48864
2018-08-07T08:00:38.739Z,51648
2018-08-07T08:01:46.814Z,56480
2018-08-07T08:02:54.867Z,57248
2018-08-07T08:04:02.977Z,57728
2018-08-07T08:05:13.318Z,46656
2018-08-07T08:06:19.123Z,43840
2018-08-07T08:07:27.198Z,42080
2018-08-07T08:08:35.275Z,49024
2018-08-07T08:09:43.730Z,57248
2018-08-07T08:10:53.834Z,58432
2018-08-07T08:11:59.543Z,60736
2018-08-07T08:13:09.362Z,61536
2018-08-07T08:14:18.332Z,62176
2018-08-07T08:15:23.782Z,59136
2018-08-07T08:16:32.605Z,62816
2018-08-07T08:17:40.611Z,62080
2018-08-07T08:18:48.660Z,60992
2018-08-07T08:19:56.760Z,62592
2018-08-07T08:21:04.830Z,61856
2018-08-07T08:22:12.944Z,65280
2018-08-07T08:23:21.265Z,66592
2018-08-07T08:24:29.192Z,67712
2018-08-07T08:25:37.169Z,67936
2018-08-07T08:26:45.454Z,65824
2018-08-07T08:27:53.543Z,62528
2018-08-07T08:29:01.720Z,65792
2018-08-07T08:30:09.783Z,62976
2018-08-07T08:31:17.792Z,65376
2018-08-07T08:32:25.852Z,63008
2018-08-07T08:33:33.994Z,61248
2018-08-07T08:34:42.076Z,62784
2018-08-07T08:35:50.505Z,64384
2018-08-07T08:36:58.370Z,63520
2018-08-07T08:38:06.550Z,69216
2018-08-07T08:39:14.392Z,65184
2018-08-07T08:40:22.498Z,68512
2018-08-07T08:41:30.558Z,69088
2018-08-07T08:42:38.933Z,70496
2018-08-07T08:43:46.742Z,68128
2018-08-07T08:44:54.828Z,71296
2018-08-07T08:46:05.500Z,70336
2018-08-07T08:47:13.623Z,69600
2018-08-07T08:48:21.715Z,68320
2018-08-07T08:49:29.803Z,71360
2018-08-07T08:50:38.077Z,69888
2018-08-07T08:51:46.140Z,67904
2018-08-07T08:52:54.242Z,66272
2018-08-07T08:54:02.407Z,66144
2018-08-07T08:55:10.425Z,66624
2018-08-07T08:56:18.508Z,70272
2018-08-07T08:57:26.586Z,68736
2018-08-07T08:58:34.681Z,69280
2018-08-07T08:59:44.449Z,68576
2018-08-07T09:00:50.853Z,65280
2018-08-07T09:01:59.067Z,67680
2018-08-07T09:03:07.027Z,66496
2018-08-07T09:04:15.115Z,65312
2018-08-07T09:05:23.199Z,74432
2018-08-07T09:06:31.573Z,70944
2018-08-07T09:07:39.369Z,72384
2018-08-07T09:08:47.486Z,72416
2018-08-07T09:09:55.519Z,72896
2018-08-07T09:11:03.656Z,72288
2018-08-07T09:12:11.719Z,66496
2018-08-07T09:13:19.827Z,68384
2018-08-07T09:14:27.896Z,70080
2018-08-07T09:15:35.965Z,53184
2018-08-07T09:16:44.065Z,26880
2018-08-07T09:17:52.145Z,23072
2018-08-07T09:19:00.225Z,23136
2018-08-07T09:20:08.316Z,23072
2018-08-07T09:21:16.418Z,22720
2018-08-07T09:22:28.479Z,22528
2018-08-07T09:23:36.209Z,22272
2018-08-07T09:24:44.268Z,21984
2018-08-07T09:25:52.633Z,22368
2018-08-07T09:27:00.573Z,23680
2018-08-07T09:28:10.179Z,25536
2018-08-07T09:29:16.584Z,27264
2018-08-07T09:30:28.033Z,28032
2018-08-07T09:31:32.753Z,28064
2018-08-07T09:32:44.492Z,27616
2018-08-07T09:33:48.995Z,26912
2018-08-07T09:34:57.295Z,25888
2018-08-07T09:36:05.250Z,25120
2018-08-07T09:37:26.178Z,24544
2018-08-07T09:38:21.409Z,24160
2018-08-07T09:39:31.078Z,24384
2018-08-07T09:40:37.595Z,24896
2018-08-07T09:41:45.665Z,24992
2018-08-07T09:42:53.962Z,24864
2018-08-07T09:44:02.057Z,24544
2018-08-07T09:45:10.129Z,23744
2018-08-07T09:46:18.242Z,22784
2018-08-07T09:47:26.275Z,21376
2018-08-07T09:48:34.384Z,19936
2018-08-07T09:49:42.567Z,18560
2018-08-07T09:50:50.803Z,17740
2018-08-07T09:51:58.641Z,17240
2018-08-07T09:53:06.741Z,16956
2018-08-07T09:54:14.768Z,16924
2018-08-07T09:56:30.938Z,17332
2018-08-07T09:57:39.015Z,17516
2018-08-07T09:58:50.976Z,17424
2018-08-07T09:59:55.183Z,17132
2018-08-07T10:01:03.290Z,17028
2018-08-07T10:02:11.345Z,17024
2018-08-07T10:03:21.038Z,16800
2018-08-07T10:04:27.503Z,16664
2018-08-07T10:05:35.670Z,16780
2018-08-07T10:06:47.699Z,17152
2018-08-07T10:07:55.785Z,17532
2018-08-07T10:09:03.895Z,17824
2018-08-07T10:10:11.969Z,17700
2018-08-07T10:11:20.040Z,17604
2018-08-07T10:12:28.164Z,17000
2018-08-07T10:13:36.181Z,16288
2018-08-07T10:14:44.333Z,15968
2018-08-07T10:15:52.350Z,15868
2018-08-07T10:17:00.443Z,15544
2018-08-07T10:18:08.527Z,15104
2018-08-07T10:19:16.639Z,15160
2018-08-07T10:20:24.670Z,14572
2018-08-07T10:21:32.776Z,14372
2018-08-07T10:22:40.840Z,14448
2018-08-07T10:23:49.014Z,15168
2018-08-07T10:24:57.008Z,15708
2018-08-07T10:26:05.467Z,15840
2018-08-07T10:27:13.175Z,16776
2018-08-07T10:28:21.273Z,17652
2018-08-07T10:29:29.324Z,17932
2018-08-07T10:30:37.460Z,18336
2018-08-07T10:31:45.565Z,18400
2018-08-07T10:32:53.636Z,18688
2018-08-07T10:34:01.924Z,18656
2018-08-07T10:35:09.909Z,18560
2018-08-07T10:36:17.800Z,18368
2018-08-07T10:37:26.444Z,17512
2018-08-07T10:38:34.005Z,16888
2018-08-07T10:39:42.025Z,16252
2018-08-07T10:40:50.364Z,15880
2018-08-07T10:41:58.201Z,15480
2018-08-07T10:43:06.337Z,15256
2018-08-07T10:44:14.471Z,15020
2018-08-07T10:45:22.502Z,14708
2018-08-07T10:46:30.554Z,14552
2018-08-07T10:47:39.491Z,14720
2018-08-07T10:48:46.681Z,15024
2018-08-07T10:49:54.779Z,15272
2018-08-07T10:51:02.857Z,15148
2018-08-07T10:52:11.206Z,15100
2018-08-07T10:53:19.360Z,15428
2018-08-07T10:54:27.408Z,15852
2018-08-07T10:56:52.533Z,18048
2018-08-07T10:58:00.642Z,18656
2018-08-07T10:59:08.804Z,19360
2018-08-07T11:00:16.892Z,20288
2018-08-07T11:01:24.849Z,21376
2018-08-07T11:02:33.978Z,21728
2018-08-07T11:03:41.069Z,21504
2018-08-07T11:04:49.462Z,20928
2018-08-07T11:05:57.176Z,20512
2018-08-07T11:07:05.539Z,20000
2018-08-07T11:08:13.886Z,19200
2018-08-07T11:09:23.651Z,18592
2018-08-07T11:10:31.717Z,17920
2018-08-07T11:11:40.299Z,16712
2018-08-07T11:12:48.101Z,16964
2018-08-07T11:13:56.227Z,17856
2018-08-07T11:15:04.240Z,17152
2018-08-07T11:16:12.320Z,16952
2018-08-07T11:17:20.393Z,17300
2018-08-07T11:18:28.679Z,17012
2018-08-07T11:19:36.762Z,16640
2018-08-07T11:20:45.931Z,16708
2018-08-07T11:21:52.927Z,16308
2018-08-07T11:23:01.217Z,15728
2018-08-07T11:24:09.288Z,15152
2018-08-07T11:25:17.380Z,14952
2018-08-07T11:26:25.422Z,15208
2018-08-07T11:27:33.567Z,15680
2018-08-07T11:28:42.622Z,15796
2018-08-07T11:29:50.051Z,15648
2018-08-07T11:30:57.771Z,15524
2018-08-07T11:32:05.854Z,15380
2018-08-07T11:33:14.238Z,14804
2018-08-07T11:34:22.221Z,14072
2018-08-07T11:35:30.308Z,13384
2018-08-07T11:36:38.680Z,12836
2018-08-07T11:37:46.474Z,12376
2018-08-07T11:38:54.541Z,12712
2018-08-07T11:40:02.910Z,12780
2018-08-07T11:41:10.710Z,13368
2018-08-07T11:42:18.796Z,13904
2018-08-07T11:43:26.872Z,14504
2018-08-07T11:44:34.980Z,14696
2018-08-07T11:45:43.033Z,14048
2018-08-07T11:46:51.206Z,13956
2018-08-07T11:47:59.286Z,14092
2018-08-07T11:49:07.676Z,13908
2018-08-07T11:50:16.784Z,13720
2018-08-07T11:51:23.438Z,13896
2018-08-07T11:52:32.650Z,14252
2018-08-07T11:53:39.580Z,14436
2018-08-07T11:54:49.217Z,14440
2018-08-07T11:55:55.726Z,14412
2018-08-07T11:57:05.052Z,14048
2018-08-07T11:58:11.911Z,13244
2018-08-07T11:59:19.992Z,12908
2018-08-07T12:00:29.359Z,13152
2018-08-07T12:01:36.150Z,13744
2018-08-07T12:02:44.430Z,14092
2018-08-07T12:03:52.527Z,14452
2018-08-07T12:05:00.589Z,14756
2018-08-07T12:06:08.685Z,14696
2018-08-07T12:07:16.752Z,15112
2018-08-07T12:08:25.027Z,16408
2018-08-07T12:09:33.111Z,18144
2018-08-07T12:10:41.207Z,19520
2018-08-07T12:11:49.289Z,20384
2018-08-07T12:12:57.369Z,21504
2018-08-07T12:14:05.618Z,22688
2018-08-07T12:15:13.773Z,23712
2018-08-07T12:16:23.434Z,24256
2018-08-07T12:17:29.922Z,24576
2018-08-07T12:18:37.989Z,24448
2018-08-07T12:19:46.028Z,24768
2018-08-07T12:20:54.168Z,25664
2018-08-07T12:22:05.620Z,25792
2018-08-07T12:23:10.295Z,25472
2018-08-07T12:24:20.633Z,24800
2018-08-07T12:25:26.464Z,24000
2018-08-07T12:26:34.741Z,23328
2018-08-07T12:27:42.905Z,23584
2018-08-07T12:28:50.909Z,24064
2018-08-07T12:29:58.984Z,24096
2018-08-07T12:31:07.072Z,22848
2018-08-07T12:32:15.151Z,20608
2018-08-07T12:33:23.420Z,18816
2018-08-07T12:34:31.489Z,17760
2018-08-07T12:35:39.587Z,17824
2018-08-07T12:36:47.663Z,18080
2018-08-07T12:37:55.733Z,16932
2018-08-07T12:39:03.915Z,15332
2018-08-07T12:40:15.282Z,13956
2018-08-07T12:41:20.281Z,13188
2018-08-07T12:42:30.888Z,12972
2018-08-07T12:43:36.135Z,12532
2018-08-07T12:44:44.317Z,11356
2018-08-07T12:45:52.317Z,10016
2018-08-07T12:47:00.414Z,8604
2018-08-07T12:48:08.476Z,7604
2018-08-07T12:49:16.585Z,6780
2018-08-07T12:50:24.762Z,6252
2018-08-07T12:51:32.738Z,5920
2018-08-07T12:52:41.243Z,5752
2018-08-07T12:53:48.904Z,5612
2018-08-07T12:54:56.969Z,5536
2018-08-07T12:56:05.046Z,5648
2018-08-07T12:57:13.386Z,6096
2018-08-07T12:58:21.469Z,6620
2018-08-07T12:59:29.270Z,7324
2018-08-07T13:00:37.359Z,8348
2018-08-07T13:01:47.074Z,9636
2018-08-07T13:02:53.800Z,10812
2018-08-07T13:04:03.222Z,12200
2018-08-07T13:05:09.669Z,13868
2018-08-07T13:06:17.782Z,15664
2018-08-07T13:07:25.813Z,17120
2018-08-07T13:08:34.039Z,18560
2018-08-07T13:09:42.096Z,19584
2018-08-07T13:10:50.103Z,19840
2018-08-07T13:11:58.163Z,19392
2018-08-07T13:13:06.262Z,18368
2018-08-07T13:14:14.328Z,16980
2018-08-07T13:15:22.421Z,16056
2018-08-07T13:16:30.489Z,15760
2018-08-07T13:17:38.659Z,15892
2018-08-07T13:18:46.654Z,15976
2018-08-07T13:19:54.769Z,15996
2018-08-07T13:21:02.788Z,16052
2018-08-07T13:22:10.881Z,15528
2018-08-07T13:23:19.150Z,14944
2018-08-07T13:24:27.256Z,15172
2018-08-07T13:25:35.370Z,15264
2018-08-07T13:26:43.393Z,14644
2018-08-07T13:27:51.740Z,14344
2018-08-07T13:28:59.628Z,14116
2018-08-07T13:30:07.623Z,13564
2018-08-07T13:31:15.864Z,12944
2018-08-07T13:32:23.882Z,12128
2018-08-07T13:33:31.945Z,11680
2018-08-07T13:34:39.965Z,11208
2018-08-07T13:35:48.612Z,10604
2018-08-07T13:36:56.326Z,10264
2018-08-07T13:38:04.660Z,9880
2018-08-07T13:39:12.467Z,9772
2018-08-07T13:40:20.557Z,9844
2018-08-07T13:41:28.615Z,10472
2018-08-07T13:42:36.727Z,11220
2018-08-07T13:43:44.789Z,11908
2018-08-07T13:44:52.865Z,12664
2018-08-07T13:46:00.951Z,13536
2018-08-07T13:47:09.027Z,14576
2018-08-07T13:48:18.555Z,15484
2018-08-07T13:49:25.181Z,15820
2018-08-07T13:50:34.883Z,15888
2018-08-07T13:51:41.348Z,15784
2018-08-07T13:52:50.918Z,15488
2018-08-07T13:53:57.505Z,14744
2018-08-07T13:55:05.573Z,14088
2018-08-07T13:56:13.667Z,12896
2018-08-07T13:57:21.763Z,11520
2018-08-07T13:58:29.829Z,9928
2018-08-07T13:59:41.325Z,8880
2018-08-07T14:00:46.186Z,8980
2018-08-07T14:01:55.431Z,9436
2018-08-07T14:03:03.690Z,9808
2018-08-07T14:04:11.502Z,9856
2018-08-07T14:05:19.498Z,9588
2018-08-07T14:07:43.133Z,8708
2018-08-07T14:08:51.198Z,8824
2018-08-07T14:09:59.294Z,9312
2018-08-07T14:11:07.331Z,9952
2018-08-07T14:12:15.375Z,10292
2018-08-07T14:13:23.474Z,10296
2018-08-07T14:14:31.604Z,10020
2018-08-07T14:15:39.710Z,9552
2018-08-07T14:16:47.768Z,9012
2018-08-07T14:17:57.449Z,8448
2018-08-07T14:19:04.143Z,7888
2018-08-07T14:20:11.989Z,7340
2018-08-07T14:21:20.133Z,6888
2018-08-07T14:22:28.229Z,6664
2018-08-07T14:23:36.394Z,6492
2018-08-07T14:24:44.483Z,6416
2018-08-07T14:25:52.551Z,6452
2018-08-07T14:27:00.642Z,6644
2018-08-07T14:28:08.698Z,7032
2018-08-07T14:29:20.185Z,7716
2018-08-07T14:30:24.947Z,8556
2018-08-07T14:31:33.072Z,9056
2018-08-07T14:32:41.007Z,9444
2018-08-07T14:33:49.113Z,9772
2018-08-07T14:34:57.178Z,9856
2018-08-07T14:36:05.256Z,9888
2018-08-07T14:37:13.328Z,9876
2018-08-07T14:38:21.425Z,9800
2018-08-07T14:39:29.473Z,9736
2018-08-07T14:40:37.578Z,9744
2018-08-07T14:41:45.611Z,9424
2018-08-07T14:42:53.730Z,8508
2018-08-07T14:44:01.792Z,7976
2018-08-07T14:45:09.872Z,7388
2018-08-07T14:46:17.937Z,7444
2018-08-07T14:47:25.986Z,7432
2018-08-07T14:48:34.171Z,6880
2018-08-07T14:49:42.281Z,6060
2018-08-07T14:50:52.598Z,5236
2018-08-07T14:51:58.321Z,4516
2018-08-07T14:53:07.811Z,4124
2018-08-07T14:54:14.476Z,4124
2018-08-07T14:55:22.571Z,4676
2018-08-07T14:56:30.895Z,5516
2018-08-07T14:57:38.728Z,6252
2018-08-07T14:58:46.767Z,7232
2018-08-07T14:59:54.873Z,8632
2018-08-07T15:01:03.081Z,10020
2018-08-07T15:02:11.028Z,11276
2018-08-07T15:03:19.083Z,12896
2018-08-07T15:04:27.189Z,13836
2018-08-07T15:05:35.224Z,14188
2018-08-07T15:06:43.400Z,14380
2018-08-07T15:07:51.387Z,14944
2018-08-07T15:08:59.562Z,15304
2018-08-07T15:10:07.538Z,15028
2018-08-07T15:11:15.591Z,14192
2018-08-07T15:12:25.196Z,13456
2018-08-07T15:13:32.130Z,12952
2018-08-07T15:14:39.854Z,12804
2018-08-07T15:15:47.920Z,13304
2018-08-07T15:16:58.641Z,14012
2018-08-07T15:18:04.072Z,13996
2018-08-07T15:19:12.161Z,13068
2018-08-07T15:20:20.242Z,11612
2018-08-07T15:21:28.327Z,10784
2018-08-07T15:22:36.390Z,10088